Time;durP1;ratioP1;P1;durP2;ratioP2;P2;SDS_P1;SDS_P2;PMS_P1;PMS_P2;Temp;Humidity;BMP_temperature;BMP_pressure;BME280_temperature;BME280_humidity;BME280_pressure;Samples;Min_cycle;Max_cycle;Signal;HPM_P1;HPM_P2
2021/11/20 00:00:09;;;;;;;;;;;6.30;99.90;6.70;100845.00;;;;336141;28;90103;-88
2021/11/20 00:00:26;;;;;;;;;;;6.30;99.90;6.80;100843.00;;;;338033;28;83344;-88
2021/11/20 00:00:39;;;;;;;;;;;6.30;99.90;6.90;100847.00;;;;338544;28;92649;-88
2021/11/20 00:00:52;;;;;;;;;;;6.30;99.90;6.80;100844.00;;;;337991;28;82358;-88
2021/11/20 00:01:07;;;;;;;;;;;6.30;99.90;6.90;100847.00;;;;340090;28;90577;-88
2021/11/20 00:01:20;;;;;;;;;;;6.30;99.90;6.90;100839.00;;;;340605;28;83518;-88
2021/11/20 00:01:33;;;;;;;;;;;6.30;99.90;6.70;100844.00;;;;338895;28;91089;-88
2021/11/20 00:01:45;;;;;;;;;;;6.30;99.90;6.70;100838.00;;;;337817;28;83473;-88
2021/11/20 00:01:57;;;;;;;;;;;6.30;99.90;6.80;100835.00;;;;338813;28;91588;-87
2021/11/20 00:02:10;;;;;;;;;;;6.30;99.90;6.90;100838.00;;;;338068;28;83073;-88
2021/11/20 00:02:27;;;;;;;;;;;6.30;99.90;6.80;100844.00;;;;337682;28;88737;-88
2021/11/20 00:02:39;;;;;;;;;;;6.30;99.90;6.90;100837.00;;;;339127;28;83519;-88
2021/11/20 00:02:51;;;;;;;;;;;6.30;99.90;6.90;100846.00;;;;338807;28;92403;-88
2021/11/20 00:03:04;;;;;;;;;;;6.30;99.90;6.90;100845.00;;;;336758;28;83334;-87
2021/11/20 00:03:16;;;;;;;;;;;6.30;99.90;6.90;100852.00;;;;337581;28;88390;-89
2021/11/20 00:03:28;;;;;;;;;;;6.30;99.90;6.90;100844.00;;;;338100;28;83409;-88
2021/11/20 00:03:43;;;;;;;;;;;6.40;99.90;6.90;100846.00;;;;335749;28;88444;-88
2021/11/20 00:03:55;;;;;;;;;;;6.30;99.90;6.80;100844.00;;;;337813;28;83583;-88
2021/11/20 00:04:07;;;;;;;;;;;6.30;99.90;6.80;100838.00;;;;337412;28;90680;-88
2021/11/20 00:04:19;;;;;;;;;;;6.30;99.90;6.80;100843.00;;;;339447;28;82327;-88
2021/11/20 00:04:31;;;;;;;;;;;6.30;99.90;6.90;100838.00;;;;338830;28;90166;-88
2021/11/20 00:04:44;;;;;;;;;;;6.30;99.90;6.90;100836.00;;;;336786;28;82352;-88
2021/11/20 00:04:56;;;;;;;;;;;6.30;99.90;6.90;100844.00;;;;337381;28;90591;-88
2021/11/20 00:05:09;;;;;;;;;;;6.30;99.90;6.80;100834.00;;;;346166;28;83354;-88
2021/11/20 00:05:28;;;;;;;;;;;6.30;99.90;6.80;100838.00;;;;345736;28;91419;-88
2021/11/20 00:05:51;;;;;;;;;;;6.30;99.90;6.90;100845.00;;;;339310;28;82574;-88
2021/11/20 00:06:02;;;;;;;;;;;6.30;99.90;6.90;100836.00;;;;338817;28;89700;-88
2021/11/20 00:06:18;;;;;;;;;;;6.30;99.90;6.90;100837.00;;;;337972;28;82367;-88
2021/11/20 00:06:32;;;;;;;;;;;6.30;99.90;6.90;100831.00;;;;336289;28;88978;-88
2021/11/20 00:06:46;;;;;;;;;;;6.30;99.90;6.80;100839.00;;;;338543;28;85476;-88
2021/11/20 00:06:59;;;;;;;;;;;6.30;99.90;6.80;100832.00;;;;338654;28;91472;-88
2021/11/20 00:07:11;;;;;;;;;;;6.30;99.90;6.70;100828.00;;;;337972;28;83468;-88
2021/11/20 00:07:23;;;;;;;;;;;6.30;99.90;6.80;100831.00;;;;337494;28;91727;-88
2021/11/20 00:07:35;;;;;;;;;;;6.30;99.90;6.60;100843.00;;;;338053;28;82313;-88
2021/11/20 00:07:46;;;;;;;;;;;6.30;99.90;6.50;100839.00;;;;338820;28;90606;-88
2021/11/20 00:08:00;;;;;;;;;;;6.30;99.90;6.50;100827.00;;;;337644;28;83293;-88
2021/11/20 00:08:12;;;;;;;;;;;6.20;99.90;6.60;100829.00;;;;339987;28;91502;-88
2021/11/20 00:08:24;;;;;;;;;;;6.20;99.90;6.70;100839.00;;;;340692;28;83352;-88
2021/11/20 00:08:36;;;;;;;;;;;6.20;99.90;6.70;100836.00;;;;338695;28;91262;-87
2021/11/20 00:08:47;;;;;;;;;;;6.30;99.90;6.80;100836.00;;;;340310;28;82707;-88
2021/11/20 00:08:59;;;;;;;;;;;6.20;99.90;6.80;100837.00;;;;341558;27;89680;-88
2021/11/20 00:09:13;;;;;;;;;;;6.30;99.90;6.80;100823.00;;;;342069;28;83329;-88
2021/11/20 00:09:27;;;;;;;;;;;6.30;99.90;6.70;100843.00;;;;340247;28;88746;-88
2021/11/20 00:09:39;;;;;;;;;;;6.30;99.90;6.80;100835.00;;;;341900;28;82466;-88
2021/11/20 00:09:51;;;;;;;;;;;6.30;99.90;6.80;100825.00;;;;341339;28;91757;-87
2021/11/20 00:10:04;;;;;;;;;;;6.30;99.90;6.80;100832.00;;;;340656;28;83316;-88
2021/11/20 00:10:19;;;;;;;;;;;6.30;99.90;6.70;100832.00;;;;337434;28;90177;-88
2021/11/20 00:10:31;;;;;;;;;;;6.30;99.90;6.70;100828.00;;;;338025;28;83239;-88
2021/11/20 00:10:44;;;;;;;;;;;6.30;99.90;6.70;100833.00;;;;336040;28;92579;-88
2021/11/20 00:11:00;;;;;;;;;;;6.30;99.90;6.60;100834.00;;;;339183;28;83176;-89
2021/11/20 00:11:13;;;;;;;;;;;6.30;99.90;6.60;100835.00;;;;338959;28;88960;-88
2021/11/20 00:11:27;;;;;;;;;;;6.20;99.90;6.60;100844.00;;;;339256;28;83398;-88
2021/11/20 00:11:40;;;;;;;;;;;6.30;99.90;6.70;100835.00;;;;338943;28;88508;-88
2021/11/20 00:11:53;;;;;;;;;;;6.30;99.90;6.70;100826.00;;;;339315;28;82424;-88
2021/11/20 00:12:09;;;;;;;;;;;6.20;99.90;6.80;100832.00;;;;341340;28;89531;-88
2021/11/20 00:12:26;;;;;;;;;;;6.30;99.90;6.80;100831.00;;;;338017;28;82501;-88
2021/11/20 00:12:41;;;;;;;;;;;6.30;99.90;6.70;100828.00;;;;343078;28;89121;-88
2021/11/20 00:12:53;;;;;;;;;;;6.30;99.90;6.80;100835.00;;;;336640;28;83437;-88
2021/11/20 00:13:08;;;;;;;;;;;6.30;99.90;6.60;100835.00;;;;338685;28;90162;-88
2021/11/20 00:13:20;;;;;;;;;;;6.20;99.90;6.60;100838.00;;;;336690;28;83559;-88
2021/11/20 00:13:32;;;;;;;;;;;6.30;99.90;6.70;100837.00;;;;340338;28;88189;-88
2021/11/20 00:13:44;;;;;;;;;;;6.20;99.90;6.70;100835.00;;;;339217;28;82503;-88
2021/11/20 00:13:56;;;;;;;;;;;6.20;99.90;6.70;100837.00;;;;339956;28;90961;-88
2021/11/20 00:14:10;;;;;;;;;;;6.20;99.90;6.70;100843.00;;;;340660;28;83350;-89
2021/11/20 00:14:22;;;;;;;;;;;6.20;99.90;6.70;100836.00;;;;337660;28;88358;-88
2021/11/20 00:14:34;;;;;;;;;;;6.30;99.90;6.70;100849.00;;;;337808;28;82391;-88
2021/11/20 00:14:46;;;;;;;;;;;6.30;99.90;6.70;100844.00;;;;338825;28;89433;-88
2021/11/20 00:14:58;;;;;;;;;;;6.30;99.90;6.60;100836.00;;;;339302;28;83375;-88
2021/11/20 00:15:16;;;;;;;;;;;6.20;99.90;6.70;100835.00;;;;337556;28;88957;-89
2021/11/20 00:15:31;;;;;;;;;;;6.20;99.90;6.60;100844.00;;;;340717;28;83329;-88
2021/11/20 00:15:51;;;;;;;;;;;6.20;99.90;6.60;100834.00;;;;340288;28;89049;-88
2021/11/20 00:16:04;;;;;;;;;;;6.20;99.90;6.60;100845.00;;;;339349;28;83495;-88
2021/11/20 00:16:17;;;;;;;;;;;6.20;99.90;6.70;100835.00;;;;339987;28;92342;-88
2021/11/20 00:16:29;;;;;;;;;;;6.20;99.90;6.70;100836.00;;;;341996;28;83331;-88
2021/11/20 00:16:42;;;;;;;;;;;6.20;99.90;6.70;100843.00;;;;338734;28;88810;-89
2021/11/20 00:16:55;;;;;;;;;;;6.20;99.90;6.70;100839.00;;;;344968;28;83212;-88
2021/11/20 00:17:07;;;;;;;;;;;6.20;99.90;6.60;100837.00;;;;338898;28;88119;-88
2021/11/20 00:17:19;;;;;;;;;;;6.20;99.90;6.60;100834.00;;;;343321;28;83311;-89
2021/11/20 00:17:30;;;;;;;;;;;6.20;99.90;6.70;100837.00;;;;337453;28;91094;-89
2021/11/20 00:17:42;;;;;;;;;;;6.20;99.90;6.70;100831.00;;;;339302;28;83165;-88
2021/11/20 00:17:55;;;;;;;;;;;6.20;99.90;6.80;100833.00;;;;341396;28;90227;-88
2021/11/20 00:18:07;;;;;;;;;;;6.20;99.90;6.80;100832.00;;;;339378;28;83162;-89
2021/11/20 00:18:19;;;;;;;;;;;6.20;99.90;6.60;100832.00;;;;340001;28;93110;-88
2021/11/20 00:18:31;;;;;;;;;;;6.20;99.90;6.60;100833.00;;;;340694;28;82369;-88
2021/11/20 00:18:44;;;;;;;;;;;6.20;99.90;6.60;100834.00;;;;336212;28;90675;-88
2021/11/20 00:18:56;;;;;;;;;;;6.20;99.90;6.60;100831.00;;;;339325;28;83424;-88
2021/11/20 00:19:08;;;;;;;;;;;6.20;99.90;6.70;100831.00;;;;338797;28;89050;-89
2021/11/20 00:19:21;;;;;;;;;;;6.10;99.90;6.70;100830.00;;;;339392;28;82635;-88
2021/11/20 00:19:33;;;;;;;;;;;6.20;99.90;6.70;100829.00;;;;339019;28;89356;-88
2021/11/20 00:19:45;;;;;;;;;;;6.20;99.90;6.80;100832.00;;;;339018;28;82342;-89
2021/11/20 00:19:57;;;;;;;;;;;6.20;99.90;6.70;100844.00;;;;336382;28;89030;-88
2021/11/20 00:20:11;;;;;;;;;;;6.10;99.90;6.60;100835.00;;;;339280;28;83303;-89
2021/11/20 00:20:23;;;;;;;;;;;6.20;99.90;6.60;100833.00;;;;340284;28;91472;-88
2021/11/20 00:20:38;;;;;;;;;;;6.20;99.90;6.70;100832.00;;;;339192;28;83309;-88
2021/11/20 00:20:55;;;;;;;;;;;6.20;99.90;6.70;100830.00;;;;336254;28;89431;-89
2021/11/20 00:21:10;;;;;;;;;;;6.20;99.90;6.80;100831.00;;;;338069;28;83445;-89
2021/11/20 00:21:29;;;;;;;;;;;6.20;99.90;6.70;100833.00;;;;343172;28;87423;-88
2021/11/20 00:21:45;;;;;;;;;;;6.20;99.90;6.60;100831.00;;;;337794;28;83529;-88
2021/11/20 00:22:25;;;;;;;;;;;6.20;99.90;6.60;100834.00;;;;337620;28;87051;-89
2021/11/20 00:22:38;;;;;;;;;;;6.20;99.90;6.60;100837.00;;;;335115;29;83152;-89
2021/11/20 00:22:50;;;;;;;;;;;6.20;99.90;6.60;100836.00;;;;335370;28;89058;-88
2021/11/20 00:23:02;;;;;;;;;;;6.20;99.90;6.60;100829.00;;;;340620;28;83458;-88
2021/11/20 00:23:18;;;;;;;;;;;6.20;99.90;6.60;100832.00;;;;339861;28;93046;-88
2021/11/20 00:23:38;;;;;;;;;;;6.20;99.90;6.70;100836.00;;;;338147;28;83385;-88
2021/11/20 00:23:53;;;;;;;;;;;6.10;99.90;6.60;100824.00;;;;344836;28;88473;-89
2021/11/20 00:24:15;;;;;;;;;;;6.10;99.90;6.60;100825.00;;;;338072;28;82352;-88
2021/11/20 00:24:35;;;;;;;;;;;6.20;99.90;6.50;100826.00;;;;338957;28;88275;-88
2021/11/20 00:24:53;;;;;;;;;;;6.10;99.90;6.50;100826.00;;;;340217;28;83476;-88
2021/11/20 00:25:21;;;;;;;;;;;6.10;99.90;6.50;100831.00;;;;337641;28;88706;-88
2021/11/20 00:25:41;;;;;;;;;;;6.10;99.90;6.70;100831.00;;;;339379;28;82371;-89
2021/11/20 00:25:55;;;;;;;;;;;6.10;99.90;6.70;100828.00;;;;337597;28;89444;-88
2021/11/20 00:26:11;;;;;;;;;;;6.10;99.90;6.70;100827.00;;;;339352;28;83364;-89
2021/11/20 00:26:33;;;;;;;;;;;6.20;99.90;6.80;100825.00;;;;341384;28;93500;-89
2021/11/20 00:26:45;;;;;;;;;;;6.10;99.90;6.80;100828.00;;;;339343;28;83276;-89
2021/11/20 00:26:57;;;;;;;;;;;6.10;99.90;6.70;100825.00;;;;341416;28;91951;-88
2021/11/20 00:27:17;;;;;;;;;;;6.20;99.90;6.60;100828.00;;;;340722;28;82289;-88
2021/11/20 00:27:35;;;;;;;;;;;6.20;99.90;6.70;100830.00;;;;337621;28;88401;-88
2021/11/20 00:27:47;;;;;;;;;;;6.20;99.90;6.60;100825.00;;;;339158;28;82334;-88
2021/11/20 00:28:00;;;;;;;;;;;6.20;99.90;6.70;100829.00;;;;340291;28;88823;-88
2021/11/20 00:28:17;;;;;;;;;;;6.20;99.90;6.60;100833.00;;;;337980;28;82391;-88
2021/11/20 00:28:42;;;;;;;;;;;6.20;99.90;6.70;100828.00;;;;338721;28;90784;-88
2021/11/20 00:29:38;;;;;;;;;;;6.20;99.90;6.70;100838.00;;;;340666;28;82374;-88
2021/11/20 00:30:12;;;;;;;;;;;6.20;99.90;6.60;100831.00;;;;338545;28;91335;-88
2021/11/20 00:30:28;;;;;;;;;;;6.10;99.90;6.70;100818.00;;;;339063;28;83317;-88
2021/11/20 00:30:51;;;;;;;;;;;6.10;99.90;6.80;100834.00;;;;338999;28;87867;-88
2021/11/20 00:31:06;;;;;;;;;;;6.10;99.90;6.80;100831.00;;;;339264;28;82627;-88
2021/11/20 00:31:18;;;;;;;;;;;6.10;99.90;6.70;100834.00;;;;339961;28;91809;-88
2021/11/20 00:31:37;;;;;;;;;;;6.10;99.90;6.70;100830.00;;;;340670;28;83397;-88
2021/11/20 00:31:59;;;;;;;;;;;6.10;99.90;6.70;100834.00;;;;337543;28;89272;-88
2021/11/20 00:32:15;;;;;;;;;;;6.10;99.90;6.80;100826.00;;;;339095;28;83839;-87
2021/11/20 00:32:31;;;;;;;;;;;6.10;99.90;6.60;100833.00;;;;339990;28;91035;-88
2021/11/20 00:32:52;;;;;;;;;;;6.10;99.90;6.70;100830.00;;;;337927;28;83335;-88
2021/11/20 00:33:05;;;;;;;;;;;6.10;99.90;6.80;100833.00;;;;338866;28;89482;-88
2021/11/20 00:33:17;;;;;;;;;;;6.20;99.90;6.80;100831.00;;;;340570;28;83214;-89
2021/11/20 00:33:30;;;;;;;;;;;6.20;99.90;6.80;100827.00;;;;338976;28;87991;-88
2021/11/20 00:33:42;;;;;;;;;;;6.20;99.90;6.80;100826.00;;;;336855;28;82259;-88
2021/11/20 00:33:54;;;;;;;;;;;6.20;99.90;6.70;100831.00;;;;337304;28;90805;-88
2021/11/20 00:34:14;;;;;;;;;;;6.20;99.90;6.70;100820.00;;;;336543;28;83438;-88
2021/11/20 00:34:27;;;;;;;;;;;6.20;99.90;6.70;100824.00;;;;337559;28;91037;-88
2021/11/20 00:34:40;;;;;;;;;;;6.20;99.90;6.60;100828.00;;;;339388;28;82321;-88
2021/11/20 00:34:54;;;;;;;;;;;6.20;99.90;6.70;100833.00;;;;339954;28;92880;-88
2021/11/20 00:35:08;;;;;;;;;;;6.20;99.90;6.80;100830.00;;;;337825;28;83358;-88
2021/11/20 00:35:23;;;;;;;;;;;6.20;99.90;6.70;100837.00;;;;337448;28;87813;-89
2021/11/20 00:35:37;;;;;;;;;;;6.20;99.90;6.70;100828.00;;;;339343;28;83330;-88
2021/11/20 00:35:50;;;;;;;;;;;6.20;99.90;6.80;100829.00;;;;338899;28;89098;-88
2021/11/20 00:36:02;;;;;;;;;;;6.20;99.90;6.80;100834.00;;;;341874;28;83642;-88
2021/11/20 00:36:14;;;;;;;;;;;6.20;99.90;6.80;100826.00;;;;339008;28;88413;-88
2021/11/20 00:36:26;;;;;;;;;;;6.20;99.90;6.90;100824.00;;;;340570;28;83396;-88
2021/11/20 00:36:38;;;;;;;;;;;6.20;99.90;6.90;100835.00;;;;338816;28;90835;-88
2021/11/20 00:36:50;;;;;;;;;;;6.20;99.90;6.80;100824.00;;;;338002;28;83229;-88
2021/11/20 00:37:02;;;;;;;;;;;6.20;99.90;6.70;100825.00;;;;338579;28;93034;-88
2021/11/20 00:37:14;;;;;;;;;;;6.20;99.90;6.70;100822.00;;;;339305;28;82633;-88
2021/11/20 00:37:26;;;;;;;;;;;6.20;99.90;6.80;100826.00;;;;338935;28;87759;-88
2021/11/20 00:37:38;;;;;;;;;;;6.30;99.90;6.80;100826.00;;;;339281;28;83744;-89
2021/11/20 00:37:50;;;;;;;;;;;6.20;99.90;6.90;100822.00;;;;337455;28;90194;-89
2021/11/20 00:38:03;;;;;;;;;;;6.20;99.90;6.90;100827.00;;;;336665;28;82608;-87
2021/11/20 00:38:15;;;;;;;;;;;6.20;99.90;6.90;100826.00;;;;339948;28;91235;-88
2021/11/20 00:38:28;;;;;;;;;;;6.20;99.90;6.90;100823.00;;;;339286;28;83485;-88
2021/11/20 00:38:41;;;;;;;;;;;6.30;99.90;6.80;100822.00;;;;339945;28;89024;-88
2021/11/20 00:38:52;;;;;;;;;;;6.30;99.90;6.80;100816.00;;;;343984;28;83524;-88
2021/11/20 00:39:06;;;;;;;;;;;6.30;99.90;6.80;100824.00;;;;346933;28;92522;-88
2021/11/20 00:39:19;;;;;;;;;;;6.30;99.90;6.90;100824.00;;;;349047;27;83382;-88
2021/11/20 00:39:32;;;;;;;;;;;6.30;99.90;6.90;100827.00;;;;347111;28;90242;-88
2021/11/20 00:39:44;;;;;;;;;;;6.30;99.90;6.90;100824.00;;;;346374;28;83434;-88
2021/11/20 00:39:56;;;;;;;;;;;6.30;99.90;6.90;100815.00;;;;345653;28;89340;-88
2021/11/20 00:40:12;;;;;;;;;;;6.30;99.90;6.90;100823.00;;;;346270;28;82535;-88
2021/11/20 00:40:28;;;;;;;;;;;6.30;99.90;6.90;100821.00;;;;345893;28;89064;-88
2021/11/20 00:40:55;;;;;;;;;;;6.30;99.90;6.80;100825.00;;;;345921;28;83548;-87
2021/11/20 00:41:11;;;;;;;;;;;6.30;99.90;6.90;100825.00;;;;345231;28;88372;-87
2021/11/20 00:41:25;;;;;;;;;;;6.30;99.90;6.70;100816.00;;;;345026;28;82223;-88
2021/11/20 00:41:37;;;;;;;;;;;6.30;99.90;6.80;100822.00;;;;345264;28;90398;-88
2021/11/20 00:41:48;;;;;;;;;;;6.30;99.90;6.70;100822.00;;;;340351;28;82645;-88
2021/11/20 00:42:00;;;;;;;;;;;6.30;99.90;6.70;100815.00;;;;339961;28;89021;-88
2021/11/20 00:42:13;;;;;;;;;;;6.30;99.90;6.70;100810.00;;;;337877;28;83491;-88
2021/11/20 00:42:29;;;;;;;;;;;6.30;99.90;6.70;100814.00;;;;337610;28;89415;-88
2021/11/20 00:42:41;;;;;;;;;;;6.30;99.90;6.70;100808.00;;;;337897;28;82349;-88
2021/11/20 00:42:52;;;;;;;;;;;6.30;99.90;6.70;100807.00;;;;345804;28;90488;-88
2021/11/20 00:43:05;;;;;;;;;;;6.30;99.90;6.80;100815.00;;;;346207;28;83335;-88
2021/11/20 00:43:17;;;;;;;;;;;6.30;99.90;6.70;100816.00;;;;344046;28;90981;-88
2021/11/20 00:43:29;;;;;;;;;;;6.20;99.90;6.70;100813.00;;;;346277;28;83452;-88
2021/11/20 00:43:42;;;;;;;;;;;6.30;99.90;6.70;100819.00;;;;345832;28;89710;-89
2021/11/20 00:43:54;;;;;;;;;;;6.20;99.90;6.70;100814.00;;;;344817;28;83313;-88
2021/11/20 00:44:06;;;;;;;;;;;6.30;99.90;6.60;100809.00;;;;344335;28;90309;-89
2021/11/20 00:44:18;;;;;;;;;;;6.30;99.90;6.70;100813.00;;;;343602;28;82445;-89
2021/11/20 00:44:30;;;;;;;;;;;6.20;99.90;6.70;100809.00;;;;344512;28;88410;-88
2021/11/20 00:44:41;;;;;;;;;;;6.20;99.90;6.70;100811.00;;;;342711;28;82577;-88
2021/11/20 00:44:53;;;;;;;;;;;6.20;99.90;6.70;100815.00;;;;338992;28;91595;-89
2021/11/20 00:45:05;;;;;;;;;;;6.30;99.90;6.60;100809.00;;;;346225;28;83444;-88
2021/11/20 00:45:17;;;;;;;;;;;6.30;99.90;6.60;100810.00;;;;345810;28;88989;-89
2021/11/20 00:45:29;;;;;;;;;;;6.20;99.90;6.50;100815.00;;;;345882;28;82575;-89
2021/11/20 00:45:41;;;;;;;;;;;6.20;99.90;6.50;100816.00;;;;345699;28;90409;-89
2021/11/20 00:45:54;;;;;;;;;;;6.20;99.90;6.60;100810.00;;;;343516;28;83420;-88
2021/11/20 00:46:06;;;;;;;;;;;6.20;99.90;6.60;100810.00;;;;345851;28;88614;-88
2021/11/20 00:46:20;;;;;;;;;;;6.20;99.90;6.60;100813.00;;;;346040;28;83673;-89
2021/11/20 00:46:32;;;;;;;;;;;6.20;99.90;6.40;100812.00;;;;344475;28;89223;-89
2021/11/20 00:46:45;;;;;;;;;;;6.20;99.90;6.50;100806.00;;;;348786;27;82453;-89
2021/11/20 00:46:57;;;;;;;;;;;6.10;99.90;6.60;100806.00;;;;346941;28;91840;-88
2021/11/20 00:47:09;;;;;;;;;;;6.10;99.90;6.60;100810.00;;;;344896;28;82416;-89
2021/11/20 00:47:21;;;;;;;;;;;6.10;99.90;6.40;100808.00;;;;345745;28;89302;-88
2021/11/20 00:47:32;;;;;;;;;;;6.10;99.90;6.30;100813.00;;;;347321;28;82495;-89
2021/11/20 00:47:44;;;;;;;;;;;6.10;99.90;6.40;100815.00;;;;341116;28;90131;-89
2021/11/20 00:47:56;;;;;;;;;;;6.10;99.90;6.50;100811.00;;;;343753;27;83725;-89
2021/11/20 00:48:08;;;;;;;;;;;6.10;99.90;6.60;100813.00;;;;345014;28;90650;-89
2021/11/20 00:48:21;;;;;;;;;;;6.10;99.90;6.50;100819.00;;;;347650;28;83412;-88
2021/11/20 00:48:33;;;;;;;;;;;6.10;99.90;6.50;100809.00;;;;345587;28;91625;-88
2021/11/20 00:48:46;;;;;;;;;;;6.10;99.90;6.60;100810.00;;;;345033;28;83403;-89
2021/11/20 00:48:58;;;;;;;;;;;6.10;99.90;6.60;100813.00;;;;338864;28;89339;-89
2021/11/20 00:49:11;;;;;;;;;;;6.10;99.90;6.50;100810.00;;;;344946;28;83301;-88
2021/11/20 00:49:22;;;;;;;;;;;6.10;99.90;6.50;100812.00;;;;344251;28;90581;-89
2021/11/20 00:49:35;;;;;;;;;;;6.10;99.90;6.60;100812.00;;;;339115;28;83411;-89
2021/11/20 00:49:47;;;;;;;;;;;6.10;99.90;6.50;100801.00;;;;338589;28;91649;-89
2021/11/20 00:49:59;;;;;;;;;;;6.10;99.90;6.60;100812.00;;;;337954;28;82658;-89
2021/11/20 00:50:13;;;;;;;;;;;6.10;99.90;6.60;100807.00;;;;345748;28;88741;-89
2021/11/20 00:50:26;;;;;;;;;;;6.10;99.90;6.60;100808.00;;;;346365;28;83219;-89
2021/11/20 00:50:39;;;;;;;;;;;6.10;99.90;6.70;100811.00;;;;342019;28;89530;-89
2021/11/20 00:50:59;;;;;;;;;;;6.10;99.90;6.60;100801.00;;;;346146;28;83209;-89
2021/11/20 00:51:11;;;;;;;;;;;6.10;99.90;6.50;100812.00;;;;338959;28;87099;-89
2021/11/20 00:51:24;;;;;;;;;;;6.10;99.90;6.40;100804.00;;;;340399;28;83636;-89
2021/11/20 00:51:36;;;;;;;;;;;6.10;99.90;6.50;100797.00;;;;338868;28;89578;-89
2021/11/20 00:51:48;;;;;;;;;;;6.10;99.90;6.50;100804.00;;;;344981;28;83416;-89
2021/11/20 00:52:00;;;;;;;;;;;6.10;99.90;6.50;100807.00;;;;345509;28;91314;-89
2021/11/20 00:52:13;;;;;;;;;;;6.10;99.90;6.50;100809.00;;;;338082;28;82408;-89
2021/11/20 00:52:25;;;;;;;;;;;6.10;99.90;6.60;100799.00;;;;340375;28;86578;-89
2021/11/20 00:52:36;;;;;;;;;;;6.10;99.90;6.60;100801.00;;;;340570;28;83441;-89
2021/11/20 00:52:48;;;;;;;;;;;6.10;99.90;6.60;100804.00;;;;337630;28;88115;-89
2021/11/20 00:53:00;;;;;;;;;;;6.10;99.90;6.60;100797.00;;;;337971;28;82352;-89
2021/11/20 00:53:13;;;;;;;;;;;6.10;99.90;6.60;100803.00;;;;341258;28;91665;-88
2021/11/20 00:53:25;;;;;;;;;;;6.10;99.90;6.60;100802.00;;;;340375;28;83374;-89
2021/11/20 00:53:37;;;;;;;;;;;6.10;99.90;6.60;100808.00;;;;339808;28;89797;-89
2021/11/20 00:53:48;;;;;;;;;;;6.10;99.90;6.60;100800.00;;;;341943;28;83669;-89
2021/11/20 00:54:02;;;;;;;;;;;6.10;99.90;6.40;100799.00;;;;344782;28;91588;-88
2021/11/20 00:54:14;;;;;;;;;;;6.10;99.90;6.20;100810.00;;;;347607;28;82393;-89
2021/11/20 00:54:26;;;;;;;;;;;6.00;99.90;6.30;100803.00;;;;346990;28;90851;-88
2021/11/20 00:54:39;;;;;;;;;;;6.00;99.90;6.40;100795.00;;;;346137;28;83498;-88
2021/11/20 00:54:51;;;;;;;;;;;6.00;99.90;6.50;100794.00;;;;344548;28;87312;-88
2021/11/20 00:55:03;;;;;;;;;;;6.00;99.90;6.50;100804.00;;;;344709;28;83459;-89
2021/11/20 00:55:19;;;;;;;;;;;6.00;99.90;6.50;100802.00;;;;347221;27;87683;-88
2021/11/20 00:55:31;;;;;;;;;;;6.00;99.90;6.50;100796.00;;;;346312;28;82408;-88
2021/11/20 00:55:42;;;;;;;;;;;6.00;99.90;6.50;100798.00;;;;344146;28;91787;-89
2021/11/20 00:55:55;;;;;;;;;;;6.00;99.90;6.40;100798.00;;;;347136;28;83388;-89
2021/11/20 00:56:07;;;;;;;;;;;6.00;99.90;6.40;100795.00;;;;346943;28;91473;-88
2021/11/20 00:56:19;;;;;;;;;;;6.00;99.90;6.30;100797.00;;;;347545;28;83285;-89
2021/11/20 00:56:31;;;;;;;;;;;6.00;99.90;6.40;100798.00;;;;344556;28;87801;-88
2021/11/20 00:56:44;;;;;;;;;;;6.00;99.90;6.40;100800.00;;;;344153;28;82690;-88
2021/11/20 00:56:55;;;;;;;;;;;6.00;99.90;6.40;100796.00;;;;344243;28;87815;-89
2021/11/20 00:57:08;;;;;;;;;;;6.00;99.90;6.40;100797.00;;;;347686;28;82351;-88
2021/11/20 00:57:19;;;;;;;;;;;6.00;99.90;6.40;100797.00;;;;338755;28;91871;-89
2021/11/20 00:57:31;;;;;;;;;;;6.00;99.90;6.20;100800.00;;;;346342;28;82320;-89
2021/11/20 00:57:44;;;;;;;;;;;6.00;99.90;6.20;100797.00;;;;338801;28;89953;-88
2021/11/20 00:57:56;;;;;;;;;;;5.90;99.90;6.20;100798.00;;;;340292;28;83391;-88
2021/11/20 00:58:08;;;;;;;;;;;5.90;99.90;6.20;100795.00;;;;337503;28;91415;-88
2021/11/20 00:58:20;;;;;;;;;;;5.90;99.90;6.30;100795.00;;;;340628;28;83498;-88
2021/11/20 00:58:32;;;;;;;;;;;5.90;99.90;6.30;100800.00;;;;338598;28;88849;-88
2021/11/20 00:58:44;;;;;;;;;;;5.90;99.90;6.30;100797.00;;;;339293;28;82316;-88
2021/11/20 00:58:56;;;;;;;;;;;5.90;99.90;6.40;100797.00;;;;338816;28;90849;-88
2021/11/20 00:59:08;;;;;;;;;;;5.90;99.90;6.40;100799.00;;;;340429;28;83326;-88
2021/11/20 00:59:21;;;;;;;;;;;5.90;99.90;6.40;100793.00;;;;340178;28;87766;-88
2021/11/20 00:59:32;;;;;;;;;;;5.90;99.90;6.40;100793.00;;;;340512;28;83375;-89
2021/11/20 00:59:44;;;;;;;;;;;5.90;99.90;6.40;100798.00;;;;342268;28;91304;-89
2021/11/20 00:59:56;;;;;;;;;;;5.90;99.90;6.40;100788.00;;;;341186;28;83381;-89
2021/11/20 01:00:10;;;;;;;;;;;5.90;99.90;6.40;100790.00;;;;343697;28;92947;-88
2021/11/20 01:00:26;;;;;;;;;;;5.90;99.90;6.40;100796.00;;;;339411;28;83280;-89
2021/11/20 01:00:47;;;;;;;;;;;5.90;99.90;6.40;100797.00;;;;338809;28;88417;-88
2021/11/20 01:01:00;;;;;;;;;;;5.90;99.90;6.50;100797.00;;;;340452;28;82331;-88
2021/11/20 01:01:20;;;;;;;;;;;5.90;99.90;6.50;100795.00;;;;338577;28;87763;-88
2021/11/20 01:01:54;;;;;;;;;;;5.90;99.90;6.40;100798.00;;;;340583;28;82523;-88
2021/11/20 01:02:06;;;;;;;;;;;5.90;99.90;6.30;100792.00;;;;345600;28;92100;-88
2021/11/20 01:02:19;;;;;;;;;;;5.90;99.90;6.30;100794.00;;;;346260;28;83421;-88
2021/11/20 01:02:30;;;;;;;;;;;5.90;99.90;6.40;100789.00;;;;339845;28;90673;-88
2021/11/20 01:02:42;;;;;;;;;;;5.90;99.90;6.40;100794.00;;;;343244;28;83564;-88
2021/11/20 01:02:55;;;;;;;;;;;5.90;99.90;6.40;100789.00;;;;343337;28;88989;-87
2021/11/20 01:03:07;;;;;;;;;;;5.90;99.90;6.40;100792.00;;;;340595;28;82374;-88
2021/11/20 01:03:19;;;;;;;;;;;5.90;99.90;6.30;100784.00;;;;337399;28;91028;-89
2021/11/20 01:03:30;;;;;;;;;;;5.90;99.90;6.40;100790.00;;;;340597;28;83107;-88
2021/11/20 01:03:42;;;;;;;;;;;5.90;99.90;6.40;100793.00;;;;338729;28;89045;-88
2021/11/20 01:03:54;;;;;;;;;;;5.90;99.90;6.40;100789.00;;;;337524;28;82651;-88
2021/11/20 01:04:06;;;;;;;;;;;5.90;99.90;6.30;100789.00;;;;338528;28;89359;-88
2021/11/20 01:04:18;;;;;;;;;;;5.90;99.90;6.30;100788.00;;;;339195;28;83201;-88
2021/11/20 01:04:31;;;;;;;;;;;5.90;99.90;6.40;100784.00;;;;338739;28;89794;-88
2021/11/20 01:04:43;;;;;;;;;;;5.90;99.90;6.40;100794.00;;;;337981;28;82268;-87
2021/11/20 01:04:54;;;;;;;;;;;5.90;99.90;6.40;100794.00;;;;338831;28;89979;-88
2021/11/20 01:05:07;;;;;;;;;;;5.90;99.90;6.30;100797.00;;;;339815;28;83522;-88
2021/11/20 01:05:19;;;;;;;;;;;5.90;99.90;6.30;100797.00;;;;338788;28;89044;-88
2021/11/20 01:05:31;;;;;;;;;;;5.90;99.90;6.40;100793.00;;;;339167;28;83484;-88
2021/11/20 01:05:43;;;;;;;;;;;5.90;99.90;6.30;100797.00;;;;338564;28;89381;-88
2021/11/20 01:05:55;;;;;;;;;;;5.90;99.90;6.20;100793.00;;;;341099;28;83301;-88
2021/11/20 01:06:07;;;;;;;;;;;5.90;99.90;6.20;100802.00;;;;338663;28;91613;-88
2021/11/20 01:06:19;;;;;;;;;;;5.90;99.90;6.20;100800.00;;;;336407;28;83400;-88
2021/11/20 01:06:31;;;;;;;;;;;5.90;99.90;6.30;100797.00;;;;337429;28;89010;-88
2021/11/20 01:06:43;;;;;;;;;;;5.90;99.90;6.40;100794.00;;;;340705;28;83196;-88
2021/11/20 01:06:55;;;;;;;;;;;5.90;99.90;6.40;100793.00;;;;340200;28;90287;-88
2021/11/20 01:07:07;;;;;;;;;;;5.90;99.90;6.40;100796.00;;;;338742;28;82334;-88
2021/11/20 01:07:19;;;;;;;;;;;5.90;99.90;6.40;100801.00;;;;338653;28;91909;-88
2021/11/20 01:07:31;;;;;;;;;;;5.90;99.90;6.40;100799.00;;;;340472;28;83309;-88
2021/11/20 01:07:44;;;;;;;;;;;5.90;99.90;6.40;100788.00;;;;339807;28;91824;-88
2021/11/20 01:07:56;;;;;;;;;;;5.90;99.90;6.40;100806.00;;;;340449;28;82390;-89
2021/11/20 01:08:10;;;;;;;;;;;5.90;99.90;6.30;100799.00;;;;342909;28;88673;-88
2021/11/20 01:08:23;;;;;;;;;;;5.90;99.90;6.40;100797.00;;;;340672;28;82358;-89
2021/11/20 01:08:38;;;;;;;;;;;5.90;99.90;6.50;100805.00;;;;338832;28;89204;-89
2021/11/20 01:08:50;;;;;;;;;;;5.90;99.90;6.50;100784.00;;;;338625;28;83356;-88
2021/11/20 01:09:02;;;;;;;;;;;5.90;99.90;6.50;100801.00;;;;337387;28;92706;-89